createdAt,value
2023-01-04T00:01:55.635Z,6.00
2023-01-04T00:06:58.827Z,6.10
2023-01-04T00:12:03.288Z,6.10
2023-01-04T00:17:06.411Z,6.10
2023-01-04T00:22:09.474Z,6.10
2023-01-04T00:27:13.928Z,6.20
2023-01-04T00:32:17.038Z,6.30
2023-01-04T00:37:20.109Z,6.30
2023-01-04T00:42:24.545Z,6.30
2023-01-04T00:47:27.642Z,6.30
2023-01-04T00:52:30.767Z,6.30
2023-01-04T00:57:35.211Z,6.30
2023-01-04T01:02:38.583Z,6.20
2023-01-04T01:07:41.814Z,6.20
2023-01-04T01:12:46.543Z,6.20
2023-01-04T01:17:49.624Z,6.20
2023-01-04T01:22:52.690Z,6.20
2023-01-04T01:27:57.183Z,6.20
2023-01-04T01:33:00.306Z,6.20
2023-01-04T01:38:03.790Z,6.30
2023-01-04T01:43:17.710Z,6.30
2023-01-04T01:48:28.049Z,6.30
2023-01-04T01:53:38.752Z,6.30
2023-01-04T01:58:46.946Z,6.40
2023-01-04T02:03:50.078Z,6.40
2023-01-04T02:08:53.606Z,6.40
2023-01-04T02:14:19.254Z,6.40
2023-01-04T02:19:47.899Z,6.40
2023-01-04T02:25:20.607Z,6.40
2023-01-04T02:30:53.002Z,6.40
2023-01-04T02:36:06.320Z,6.50
2023-01-04T02:41:19.213Z,6.50
2023-01-04T02:46:28.768Z,6.50
2023-01-04T02:51:36.028Z,6.50
2023-01-04T02:57:05.257Z,6.60
2023-01-04T03:02:43.295Z,6.60
2023-01-04T03:07:54.481Z,6.60
2023-01-04T03:13:07.299Z,6.60
2023-01-04T03:18:16.380Z,6.60
2023-01-04T03:23:41.511Z,6.70
2023-01-04T03:29:03.442Z,6.70
2023-01-04T03:34:24.449Z,6.80
2023-01-04T03:39:56.639Z,6.80
2023-01-04T03:45:27.529Z,6.80
2023-01-04T03:50:38.451Z,6.90
2023-01-04T03:55:44.371Z,7.00
2023-01-04T04:00:48.076Z,7.00
2023-01-04T04:06:08.500Z,7.10
2023-01-04T04:11:26.827Z,7.10
2023-01-04T04:16:30.331Z,7.10
2023-01-04T04:21:33.581Z,7.10
2023-01-04T04:26:38.236Z,7.10
2023-01-04T04:31:41.351Z,7.10
2023-01-04T04:36:44.526Z,7.20
2023-01-04T04:41:49.011Z,7.10
2023-01-04T04:46:52.107Z,7.10
2023-01-04T04:51:55.197Z,7.20
2023-01-04T04:56:59.684Z,7.10
2023-01-04T05:02:03.134Z,7.10
2023-01-04T05:07:12.116Z,7.10
2023-01-04T05:12:34.395Z,7.10
2023-01-04T05:17:37.468Z,7.10
2023-01-04T05:22:41.137Z,7.10
2023-01-04T05:27:45.966Z,7.10
2023-01-04T05:32:49.038Z,7.10
2023-01-04T05:37:52.491Z,7.00
2023-01-04T05:42:57.179Z,7.00
2023-01-04T05:48:00.314Z,7.00
2023-01-04T05:53:03.459Z,7.10
2023-01-04T05:58:08.018Z,7.10
2023-01-04T06:03:11.192Z,7.10
2023-01-04T06:08:14.416Z,7.20
2023-01-04T06:13:19.780Z,7.20
2023-01-04T06:18:22.836Z,7.30
2023-01-04T06:23:25.912Z,7.30
2023-01-04T06:28:34.181Z,7.30
2023-01-04T06:33:40.664Z,7.30
2023-01-04T06:38:43.731Z,7.40
2023-01-04T06:43:48.221Z,7.40
2023-01-04T06:48:52.552Z,7.40
2023-01-04T06:53:55.667Z,7.40
2023-01-04T06:59:00.287Z,7.40
2023-01-04T07:04:03.429Z,7.40
2023-01-04T07:09:06.555Z,7.50
2023-01-04T07:14:11.090Z,7.50
2023-01-04T07:19:14.139Z,7.60
2023-01-04T07:24:17.235Z,7.70
2023-01-04T07:29:22.578Z,7.70
2023-01-04T07:34:26.967Z,7.70
2023-01-04T07:39:30.151Z,7.70
2023-01-04T07:44:34.766Z,7.60
2023-01-04T07:49:38.001Z,7.50
2023-01-04T07:54:41.095Z,7.50
2023-01-04T07:59:45.564Z,7.50
2023-01-04T08:04:48.798Z,7.50
2023-01-04T08:09:52.026Z,7.60
2023-01-04T08:14:56.478Z,7.70
2023-01-04T08:20:01.595Z,7.80
2023-01-04T08:25:07.176Z,8.00
2023-01-04T08:30:12.290Z,8.10
2023-01-04T08:35:15.357Z,8.20
2023-01-04T08:40:18.697Z,8.30
2023-01-04T08:45:23.171Z,8.50
2023-01-04T08:50:26.487Z,8.60
2023-01-04T08:55:29.624Z,8.60
2023-01-04T09:00:34.452Z,8.70
2023-01-04T09:05:37.649Z,8.70
2023-01-04T09:10:41.184Z,8.80
2023-01-04T09:15:45.677Z,8.90
2023-01-04T09:20:48.858Z,9.00
2023-01-04T09:25:52.044Z,9.10
2023-01-04T09:30:56.673Z,9.20
2023-01-04T09:36:03.377Z,9.30
2023-01-04T09:41:16.023Z,9.40
2023-01-04T09:46:28.679Z,9.60
2023-01-04T09:51:36.199Z,9.80
2023-01-04T09:56:40.266Z,9.90
2023-01-04T10:01:47.692Z,10.10
2023-01-04T10:06:52.909Z,10.30
2023-01-04T10:12:17.397Z,10.50
2023-01-04T10:18:10.385Z,10.60
2023-01-04T10:23:04.076Z,10.70
2023-01-04T10:28:27.004Z,10.80
2023-01-04T10:33:41.255Z,10.90
2023-01-04T10:38:44.495Z,11.00
2023-01-04T10:44:10.886Z,11.10
2023-01-04T10:49:24.343Z,11.20
2023-01-04T10:54:32.465Z,11.20
2023-01-04T10:59:39.794Z,11.30
2023-01-04T11:04:48.968Z,11.40
2023-01-04T11:09:55.597Z,11.40
2023-01-04T11:14:58.933Z,11.40
2023-01-04T11:20:03.818Z,11.50
2023-01-04T11:30:46.561Z,11.50
2023-01-04T11:35:52.407Z,11.60
2023-01-04T11:40:57.800Z,11.60
2023-01-04T11:46:03.989Z,11.60
2023-01-04T11:51:18.349Z,11.70
2023-01-04T11:56:23.458Z,11.70
2023-01-04T12:01:26.820Z,11.80
2023-01-04T12:06:39.036Z,11.90
2023-01-04T12:11:44.433Z,11.90
2023-01-04T12:16:53.525Z,12.00
2023-01-04T12:22:01.589Z,12.00
2023-01-04T12:27:04.889Z,12.10
2023-01-04T12:32:44.659Z,12.20
2023-01-04T12:37:49.773Z,12.20
2023-01-04T12:43:24.679Z,12.30
2023-01-04T12:48:54.563Z,12.30
2023-01-04T12:54:00.958Z,12.40
2023-01-04T12:59:26.556Z,12.40
2023-01-04T13:04:40.191Z,12.40
2023-01-04T13:09:53.841Z,12.40
2023-01-04T13:15:03.195Z,12.40
2023-01-04T13:20:16.464Z,12.40
2023-01-04T13:25:22.439Z,12.50
2023-01-04T13:30:33.900Z,12.50
2023-01-04T13:35:37.199Z,12.50
2023-01-04T13:40:49.014Z,12.60
2023-01-04T13:46:10.409Z,12.60
2023-01-04T13:51:17.689Z,12.70
2023-01-04T13:56:24.807Z,12.70
2023-01-04T14:01:30.271Z,12.70
2023-01-04T14:06:36.043Z,12.80
2023-01-04T14:12:07.740Z,12.80
2023-01-04T14:17:18.189Z,12.90
2023-01-04T14:22:37.406Z,12.90
2023-01-04T14:27:44.215Z,13.00
2023-01-04T14:32:55.325Z,13.00
2023-01-04T14:38:04.510Z,13.00
2023-01-04T14:43:35.922Z,13.00
2023-01-04T14:48:39.048Z,13.00
2023-01-04T14:53:42.178Z,13.00
2023-01-04T14:58:46.956Z,13.00
2023-01-04T15:03:50.151Z,13.00
2023-01-04T15:08:53.445Z,13.10
2023-01-04T15:13:58.010Z,13.00
2023-01-04T15:19:01.056Z,13.00
2023-01-04T15:24:04.459Z,13.10
2023-01-04T15:29:09.869Z,13.10
2023-01-04T15:34:15.230Z,13.10
2023-01-04T15:39:18.365Z,13.10
2023-01-04T15:44:22.827Z,13.20
2023-01-04T15:49:26.282Z,13.20
2023-01-04T15:54:30.281Z,13.20
2023-01-04T15:59:34.847Z,13.20
2023-01-04T16:04:38.951Z,13.20
2023-01-04T16:09:42.567Z,13.20
2023-01-04T16:14:47.214Z,13.20
2023-01-04T16:19:50.283Z,13.20
2023-01-04T16:25:10.571Z,13.10
2023-01-04T16:30:16.248Z,13.20
2023-01-04T16:35:19.546Z,13.20
2023-01-04T16:40:22.763Z,13.20
2023-01-04T16:45:27.212Z,13.20
2023-01-04T16:50:30.737Z,13.20
2023-01-04T16:55:34.728Z,13.20
2023-01-04T17:00:39.255Z,13.20
2023-01-04T17:05:42.375Z,13.30
2023-01-04T17:10:45.452Z,13.30
2023-01-04T17:15:49.913Z,13.20
2023-01-04T17:21:16.897Z,13.20
2023-01-04T17:26:22.522Z,13.20
2023-01-04T17:31:28.836Z,13.20
2023-01-04T17:36:31.978Z,13.20
2023-01-04T17:41:35.334Z,13.20
2023-01-04T17:46:39.902Z,13.20
2023-01-04T17:51:42.998Z,13.20
2023-01-04T17:56:46.165Z,13.20
2023-01-04T18:01:50.899Z,13.20
2023-01-04T18:06:54.661Z,13.30
2023-01-04T18:11:57.861Z,13.30
2023-01-04T18:17:02.395Z,13.30
2023-01-04T18:22:06.393Z,13.30
2023-01-04T18:27:27.156Z,13.30
2023-01-04T18:32:31.650Z,13.30
2023-01-04T18:37:35.621Z,13.30
2023-01-04T18:42:38.746Z,13.30
2023-01-04T18:47:47.464Z,13.30
2023-01-04T18:52:50.619Z,13.30
2023-01-04T18:57:53.763Z,13.30
2023-01-04T19:02:59.185Z,13.30
2023-01-04T19:08:02.402Z,13.40
2023-01-04T19:13:05.491Z,13.40
2023-01-04T19:18:12.455Z,13.40
2023-01-04T19:23:15.641Z,13.40
2023-01-04T19:28:18.731Z,13.40
2023-01-04T19:33:23.577Z,13.40
2023-01-04T19:38:26.790Z,13.40
2023-01-04T19:43:30.117Z,13.40
2023-01-04T19:48:34.577Z,13.40
2023-01-04T19:53:38.656Z,13.40
2023-01-04T19:58:42.178Z,13.40
2023-01-04T20:03:46.746Z,13.40
2023-01-04T20:08:49.964Z,13.40
2023-01-04T20:13:53.489Z,13.40
2023-01-04T20:18:59.028Z,13.40
2023-01-04T20:24:02.391Z,13.50
2023-01-04T20:29:06.057Z,13.50
2023-01-04T20:34:10.620Z,13.60
2023-01-04T20:39:14.214Z,13.70
2023-01-04T20:44:17.387Z,13.70
2023-01-04T20:49:21.890Z,13.80
2023-01-04T20:54:25.099Z,13.70
2023-01-04T20:59:28.263Z,13.80
2023-01-04T21:04:32.923Z,13.80
2023-01-04T21:09:36.019Z,13.80
2023-01-04T21:14:40.083Z,13.80
2023-01-04T21:19:44.549Z,13.80
2023-01-04T21:24:47.634Z,13.80
2023-01-04T21:29:50.747Z,13.80
2023-01-04T21:34:55.587Z,13.90
2023-01-04T21:39:58.683Z,13.90
2023-01-04T21:45:01.843Z,13.90
2023-01-04T21:50:09.668Z,13.90
2023-01-04T21:55:16.524Z,13.90
2023-01-04T22:00:19.738Z,13.90
2023-01-04T22:05:24.486Z,13.90
2023-01-04T22:10:27.654Z,14.00
2023-01-04T22:15:30.774Z,13.90
2023-01-04T22:20:35.320Z,14.00
2023-01-04T22:25:38.693Z,14.00
2023-01-04T22:30:42.710Z,14.00
2023-01-04T22:35:47.515Z,14.00
2023-01-04T22:40:50.621Z,14.00
2023-01-04T22:46:00.688Z,14.00
2023-01-04T22:51:08.168Z,14.00
2023-01-04T22:56:22.496Z,14.00
2023-01-04T23:01:28.118Z,14.00
2023-01-04T23:06:33.747Z,14.00
2023-01-04T23:11:37.762Z,14.00
2023-01-04T23:16:41.286Z,14.00
2023-01-04T23:21:45.810Z,14.00
2023-01-04T23:26:48.905Z,14.00
2023-01-04T23:31:52.112Z,14.00
2023-01-04T23:36:56.678Z,14.10
2023-01-04T23:41:59.766Z,14.10
2023-01-04T23:52:09.143Z,14.10
2023-01-04T23:57:12.227Z,14.10
